Time;durP1;ratioP1;P1;durP2;ratioP2;P2;SDS_P1;SDS_P2;PMS_P1;PMS_P2;Temp;Humidity;BMP_temperature;BMP_pressure;BME280_temperature;BME280_humidity;BME280_pressure;Samples;Min_cycle;Max_cycle;Signal;HPM_P1;HPM_P2
2023/04/18 00:01:00;;;;;;;;;;;;;;;11.63;57.63;100580.34;4921446;29;19919;-82
2023/04/18 00:03:50;;;;;;;;;;;;;;;11.73;57.14;100575.38;4943337;29;19918;-83
2023/04/18 00:06:42;;;;;;;;;;;;;;;11.45;58.42;100579.59;4930865;29;19915;-82
2023/04/18 00:09:35;;;;;;;;;;;;;;;11.42;58.50;100580.25;4933272;29;19915;-83
2023/04/18 00:12:27;;;;;;;;;;;;;;;11.68;57.96;100580.19;4931489;29;19918;-81
2023/04/18 00:15:19;;;;;;;;;;;;;;;11.83;58.50;100574.22;4926286;29;19914;-81
2023/04/18 00:18:11;;;;;;;;;;;;;;;11.85;58.69;100570.03;4927909;29;19914;-81
2023/04/18 00:21:03;;;;;;;;;;;;;;;11.90;58.16;100575.31;4927605;29;19915;-82
2023/04/18 00:23:55;;;;;;;;;;;;;;;11.89;58.03;100572.91;4927887;29;19915;-82
2023/04/18 00:26:47;;;;;;;;;;;;;;;11.80;57.95;100572.94;4933748;29;19915;-81
2023/04/18 00:29:39;;;;;;;;;;;;;;;11.64;58.27;100574.56;4915978;29;19915;-81
2023/04/18 00:32:31;;;;;;;;;;;;;;;11.44;58.52;100576.06;4927438;29;19919;-82
2023/04/18 00:35:23;;;;;;;;;;;;;;;11.59;58.60;100572.81;4932491;29;19915;-81
2023/04/18 00:38:13;;;;;;;;;;;;;;;11.45;58.69;100579.59;4922602;29;19914;-82
2023/04/18 00:41:02;;;;;;;;;;;;;;;11.18;59.84;100569.06;4926460;29;19915;-82
2023/04/18 00:43:54;;;;;;;;;;;;;;;11.27;59.65;100567.16;4929027;29;19915;-82
2023/04/18 00:46:44;;;;;;;;;;;;;;;11.38;59.42;100571.09;4930070;29;19915;-81
2023/04/18 00:49:34;;;;;;;;;;;;;;;11.45;59.15;100568.69;4928431;29;19915;-81
2023/04/18 00:52:21;;;;;;;;;;;;;;;11.23;59.89;100558.81;4933220;29;19919;-82
2023/04/18 00:55:14;;;;;;;;;;;;;;;11.47;59.20;100561.81;4922671;29;19915;-81
2023/04/18 00:58:06;;;;;;;;;;;;;;;11.34;59.82;100559.28;4923309;29;19919;-81
2023/04/18 01:00:58;;;;;;;;;;;;;;;11.57;60.00;100555.22;4942084;29;19915;-81
2023/04/18 01:03:49;;;;;;;;;;;;;;;11.57;61.75;100560.66;4926351;29;20303;-82
2023/04/18 01:06:42;;;;;;;;;;;;;;;11.66;62.08;100555.97;4939605;29;19914;-82
2023/04/18 01:09:34;;;;;;;;;;;;;;;11.78;61.79;100561.59;4925551;29;19922;-82
2023/04/18 01:12:26;;;;;;;;;;;;;;;11.66;62.62;100564.16;4926790;29;19919;-81
2023/04/18 01:15:18;;;;;;;;;;;;;;;11.56;62.72;100559.06;4930520;29;19915;-82
2023/04/18 01:18:07;;;;;;;;;;;;;;;11.40;64.17;100552.53;4930569;29;19915;-81
2023/04/18 01:20:59;;;;;;;;;;;;;;;11.46;64.00;100556.69;4931464;29;19915;-81
2023/04/18 01:23:54;;;;;;;;;;;;;;;11.61;62.77;100561.63;4925912;29;19918;-82
2023/04/18 01:26:47;;;;;;;;;;;;;;;11.72;61.92;100557.41;4935966;29;19926;-82
2023/04/18 01:29:39;;;;;;;;;;;;;;;11.69;60.94;100544.44;4937118;29;19915;-82
2023/04/18 01:32:31;;;;;;;;;;;;;;;11.69;59.37;100547.16;4929709;29;19919;-82
2023/04/18 01:35:23;;;;;;;;;;;;;;;11.69;58.38;100540.91;4930490;29;19915;-82
2023/04/18 01:38:15;;;;;;;;;;;;;;;11.88;56.82;100549.53;4929937;29;19915;-82
2023/04/18 01:41:07;;;;;;;;;;;;;;;11.83;56.85;100542.34;4944524;29;19915;-82
2023/04/18 01:43:59;;;;;;;;;;;;;;;11.83;56.56;100536.88;4929841;29;19915;-82
2023/04/18 01:46:51;;;;;;;;;;;;;;;11.84;56.33;100530.28;4934025;29;19919;-82
2023/04/18 01:49:38;;;;;;;;;;;;;;;11.64;56.54;100524.75;4928863;29;19915;-82
2023/04/18 01:52:30;;;;;;;;;;;;;;;11.63;57.73;100529.38;4934294;29;19919;-83
2023/04/18 01:55:22;;;;;;;;;;;;;;;11.52;57.46;100528.16;4919720;29;19918;-82
2023/04/18 01:58:14;;;;;;;;;;;;;;;11.43;57.46;100521.94;4942238;29;19914;-82
2023/04/18 02:01:06;;;;;;;;;;;;;;;11.40;57.57;100528.03;4933298;29;19915;-82
2023/04/18 02:03:58;;;;;;;;;;;;;;;11.39;57.08;100526.44;4917518;29;19915;-81
2023/04/18 02:06:50;;;;;;;;;;;;;;;11.44;56.43;100528.97;4939657;29;19915;-82
2023/04/18 02:09:42;;;;;;;;;;;;;;;11.48;55.98;100535.38;4944398;28;19915;-81
2023/04/18 02:12:34;;;;;;;;;;;;;;;11.59;55.36;100533.91;4924667;29;19919;-81
2023/04/18 02:15:25;;;;;;;;;;;;;;;11.65;54.80;100532.59;4928427;29;19915;-82
2023/04/18 02:18:17;;;;;;;;;;;;;;;11.58;54.61;100530.38;4932837;29;19915;-81
2023/04/18 02:21:09;;;;;;;;;;;;;;;11.62;54.57;100533.25;4923645;29;19919;-82
2023/04/18 02:23:59;;;;;;;;;;;;;;;11.51;54.77;100532.00;4936854;29;19915;-82
2023/04/18 02:26:48;;;;;;;;;;;;;;;11.49;54.73;100526.06;4926464;29;19914;-82
2023/04/18 02:29:36;;;;;;;;;;;;;;;11.43;54.85;100530.09;4921550;29;20375;-81
2023/04/18 02:32:28;;;;;;;;;;;;;;;11.47;55.47;100529.16;4924572;29;19915;-81
2023/04/18 02:35:20;;;;;;;;;;;;;;;11.53;55.27;100532.47;4927890;29;19944;-82
2023/04/18 02:38:12;;;;;;;;;;;;;;;11.51;54.27;100534.72;4933963;29;19915;-82
2023/04/18 02:41:04;;;;;;;;;;;;;;;11.50;54.96;100533.94;4930012;29;19915;-82
2023/04/18 02:43:56;;;;;;;;;;;;;;;11.48;55.08;100533.44;4926636;29;19915;-82
2023/04/18 02:46:49;;;;;;;;;;;;;;;11.58;55.14;100530.38;4930624;29;19919;-81
2023/04/18 02:49:41;;;;;;;;;;;;;;;11.59;54.90;100528.44;4928141;29;19915;-82
2023/04/18 02:52:33;;;;;;;;;;;;;;;11.62;54.71;100522.38;4923774;29;19915;-83
2023/04/18 02:55:25;;;;;;;;;;;;;;;11.69;54.63;100524.56;4932637;29;19915;-82
2023/04/18 02:58:18;;;;;;;;;;;;;;;11.50;55.07;100522.25;4933528;29;19915;-81
2023/04/18 03:01:42;;;;;;;;;;;;;;;11.52;55.47;100522.72;4934241;29;19916;-82
2023/04/18 03:04:35;;;;;;;;;;;;;;;11.55;54.90;100517.41;4933748;29;19915;-81
2023/04/18 03:07:25;;;;;;;;;;;;;;;11.83;54.28;100520.53;4936654;29;20391;-82
2023/04/18 03:10:17;;;;;;;;;;;;;;;11.83;54.34;100520.53;4945251;28;19914;-81
2023/04/18 03:13:10;;;;;;;;;;;;;;;11.81;54.19;100516.53;4939770;29;19939;-82
2023/04/18 03:16:01;;;;;;;;;;;;;;;11.85;53.55;100520.19;4943045;29;19915;-82
2023/04/18 03:18:55;;;;;;;;;;;;;;;11.93;53.12;100520.16;4934225;29;19915;-82
2023/04/18 03:21:47;;;;;;;;;;;;;;;12.03;52.55;100515.47;4914758;29;19915;-82
2023/04/18 03:24:40;;;;;;;;;;;;;;;12.08;51.96;100518.00;4931214;29;19916;-82
2023/04/18 03:27:32;;;;;;;;;;;;;;;12.22;50.73;100524.00;4934266;29;19914;-81
2023/04/18 03:30:22;;;;;;;;;;;;;;;12.26;50.73;100516.75;4935098;29;19915;-81
2023/04/18 03:33:13;;;;;;;;;;;;;;;12.23;50.81;100511.97;4945996;29;19918;-82
2023/04/18 03:36:06;;;;;;;;;;;;;;;12.28;50.80;100509.06;4929739;29;19915;-82
2023/04/18 03:38:56;;;;;;;;;;;;;;;12.25;51.18;100518.69;4933698;29;19914;-81
2023/04/18 03:41:48;;;;;;;;;;;;;;;12.29;51.37;100522.31;4930822;29;19915;-81
2023/04/18 03:44:40;;;;;;;;;;;;;;;12.15;51.57;100521.78;4934811;29;19915;-81
2023/04/18 03:47:32;;;;;;;;;;;;;;;12.05;51.66;100521.38;4929523;29;19915;-82
2023/04/18 03:50:24;;;;;;;;;;;;;;;12.04;51.17;100525.25;4918559;29;19922;-82
2023/04/18 03:53:16;;;;;;;;;;;;;;;12.06;51.21;100517.50;4930347;29;19919;-81
2023/04/18 03:56:08;;;;;;;;;;;;;;;12.09;51.75;100527.78;4928194;29;19915;-81
2023/04/18 03:59:15;;;;;;;;;;;;;;;12.12;51.93;100527.91;4930014;29;19915;-81
2023/04/18 04:02:08;;;;;;;;;;;;;;;12.04;51.72;100523.28;4937516;29;20294;-83
2023/04/18 04:05:00;;;;;;;;;;;;;;;12.10;51.56;100523.91;4956072;28;19914;-83
2023/04/18 04:07:53;;;;;;;;;;;;;;;12.10;51.55;100524.69;4938074;29;19915;-83
2023/04/18 04:10:45;;;;;;;;;;;;;;;12.18;52.29;100520.34;4918139;29;19915;-82
2023/04/18 04:13:35;;;;;;;;;;;;;;;12.16;51.87;100522.59;4927084;29;19919;-82
2023/04/18 04:16:26;;;;;;;;;;;;;;;12.15;51.72;100523.72;4937594;29;19915;-83
2023/04/18 04:19:18;;;;;;;;;;;;;;;12.21;50.95;100525.91;4924460;29;20384;-83
2023/04/18 04:22:15;;;;;;;;;;;;;;;12.13;50.99;100524.06;4926422;29;19915;-82
2023/04/18 04:25:07;;;;;;;;;;;;;;;12.17;50.87;100529.66;4917401;29;19915;-83
2023/04/18 04:28:01;;;;;;;;;;;;;;;12.03;49.99;100529.09;4928289;29;20302;-83
2023/04/18 04:30:51;;;;;;;;;;;;;;;12.06;50.40;100528.41;4944556;29;20310;-82
2023/04/18 04:33:43;;;;;;;;;;;;;;;12.09;49.68;100530.50;4929327;29;20310;-82
2023/04/18 04:36:39;;;;;;;;;;;;;;;12.11;49.72;100530.94;4937612;29;19919;-82
2023/04/18 04:39:31;;;;;;;;;;;;;;;12.10;49.47;100529.34;4927960;29;20352;-82
2023/04/18 04:42:32;;;;;;;;;;;;;;;12.07;49.75;100525.38;4925468;29;19915;-81
2023/04/18 04:45:31;;;;;;;;;;;;;;;11.99;49.31;100528.94;4908974;29;20302;-82
2023/04/18 04:48:23;;;;;;;;;;;;;;;12.04;49.24;100538.88;4919707;29;19914;-83
2023/04/18 04:51:15;;;;;;;;;;;;;;;11.98;50.25;100533.59;4922452;29;19915;-82
2023/04/18 04:54:08;;;;;;;;;;;;;;;12.05;48.49;100540.44;4925557;29;19923;-81
2023/04/18 04:57:00;;;;;;;;;;;;;;;12.09;48.41;100544.13;4913774;29;20379;-83
2023/04/18 04:59:53;;;;;;;;;;;;;;;12.01;48.35;100548.50;4931963;29;19915;-82
2023/04/18 05:02:43;;;;;;;;;;;;;;;11.89;49.78;100548.38;4930441;29;19915;-82
2023/04/18 05:05:35;;;;;;;;;;;;;;;12.02;50.17;100549.28;4927663;29;19915;-82
2023/04/18 05:08:27;;;;;;;;;;;;;;;12.05;47.70;100554.06;4930482;29;19915;-82
2023/04/18 05:11:19;;;;;;;;;;;;;;;12.18;47.05;100558.50;4923521;29;19919;-81
2023/04/18 05:14:11;;;;;;;;;;;;;;;12.37;48.46;100556.13;4922602;29;20302;-81
2023/04/18 05:17:01;;;;;;;;;;;;;;;12.41;47.30;100559.78;4923734;29;19915;-81
2023/04/18 05:19:53;;;;;;;;;;;;;;;12.55;48.27;100554.88;4925643;29;19915;-82
2023/04/18 05:22:45;;;;;;;;;;;;;;;12.62;46.61;100546.97;4946502;23;20307;-81
2023/04/18 05:25:37;;;;;;;;;;;;;;;12.90;47.68;100560.84;4916663;29;19927;-79
2023/04/18 05:28:29;;;;;;;;;;;;;;;13.08;46.54;100572.44;4919842;29;19915;-79
2023/04/18 05:31:21;;;;;;;;;;;;;;;13.08;45.44;100575.16;4922201;29;19915;-78
2023/04/18 05:34:12;;;;;;;;;;;;;;;13.25;45.40;100575.03;4916639;29;19919;-78
2023/04/18 05:37:04;;;;;;;;;;;;;;;13.42;44.69;100574.84;4913047;29;19915;-79
2023/04/18 05:39:56;;;;;;;;;;;;;;;13.64;43.39;100576.38;4901132;29;19915;-79
2023/04/18 05:42:46;;;;;;;;;;;;;;;13.74;43.56;100583.34;4898472;29;19916;-79
2023/04/18 05:45:38;;;;;;;;;;;;;;;13.90;43.05;100584.28;4899757;29;19916;-79
2023/04/18 05:48:30;;;;;;;;;;;;;;;13.95;43.22;100590.31;4917146;29;19919;-79
2023/04/18 05:51:21;;;;;;;;;;;;;;;14.02;43.19;100593.28;4899082;29;19915;-79
2023/04/18 05:54:13;;;;;;;;;;;;;;;14.15;43.09;100596.81;4897472;29;19919;-79
2023/04/18 05:57:05;;;;;;;;;;;;;;;14.24;43.65;100600.22;4887833;29;20380;-79
2023/04/18 05:59:57;;;;;;;;;;;;;;;14.40;43.73;100603.09;4890139;29;19942;-79
2023/04/18 06:02:49;;;;;;;;;;;;;;;14.46;44.17;100604.47;4900085;29;19923;-80
2023/04/18 06:05:41;;;;;;;;;;;;;;;14.52;43.69;100606.63;4899048;29;20383;-77
2023/04/18 06:08:33;;;;;;;;;;;;;;;14.47;43.98;100608.81;4901156;29;20311;-78
2023/04/18 06:11:24;;;;;;;;;;;;;;;14.73;43.48;100608.44;4894008;29;19916;-78
2023/04/18 06:14:16;;;;;;;;;;;;;;;14.84;43.45;100606.78;4917418;29;19919;-79
2023/04/18 06:17:08;;;;;;;;;;;;;;;15.01;43.83;100620.22;4909744;29;19920;-79
2023/04/18 06:19:58;;;;;;;;;;;;;;;15.42;44.32;100619.03;4891034;29;19919;-78
2023/04/18 06:28:40;;;;;;;;;;;;;;;16.71;39.64;100615.63;6100498;23;19928;31
2023/04/18 06:31:30;;;;;;;;;;;;;;;17.23;38.38;100618.69;4898940;29;19931;-86
2023/04/18 06:34:21;;;;;;;;;;;;;;;17.78;37.99;100611.91;4883524;29;20311;-83
2023/04/18 06:37:13;;;;;;;;;;;;;;;17.92;37.48;100612.16;4879606;29;19916;-88
2023/04/18 06:40:05;;;;;;;;;;;;;;;17.82;37.98;100617.47;4904362;29;19915;-88
2023/04/18 06:42:57;;;;;;;;;;;;;;;17.70;39.40;100620.41;4923422;23;19923;-91
2023/04/18 06:45:49;;;;;;;;;;;;;;;18.34;37.69;100625.81;4932322;29;20313;-91
2023/04/18 06:48:41;;;;;;;;;;;;;;;18.37;36.90;100622.34;4941004;29;19922;-91
2023/04/18 06:51:33;;;;;;;;;;;;;;;18.65;36.66;100630.25;4943345;28;19915;-91
2023/04/18 06:54:25;;;;;;;;;;;;;;;18.58;35.62;100624.66;4921838;29;19919;-90
2023/04/18 06:57:17;;;;;;;;;;;;;;;18.97;33.61;100608.66;4934317;29;19918;-89
2023/04/18 07:00:09;;;;;;;;;;;;;;;19.37;33.35;100631.97;4924646;29;19915;-90
2023/04/18 07:03:04;;;;;;;;;;;;;;;20.14;28.76;100623.69;4927802;29;20389;-90
2023/04/18 07:05:56;;;;;;;;;;;;;;;20.05;27.38;100628.75;4935941;29;19919;-89
2023/04/18 07:08:48;;;;;;;;;;;;;;;20.97;26.88;100626.66;4932638;29;19915;-87
2023/04/18 07:11:38;;;;;;;;;;;;;;;22.56;23.77;100628.94;4932538;29;19918;-88
2023/04/18 07:14:30;;;;;;;;;;;;;;;21.88;26.84;100632.88;4926202;29;19919;-90
2023/04/18 07:17:22;;;;;;;;;;;;;;;21.22;29.07;100635.88;4930888;29;19915;-88
2023/04/18 07:20:14;;;;;;;;;;;;;;;20.98;29.71;100633.75;4928279;29;20374;-88
2023/04/18 07:23:06;;;;;;;;;;;;;;;20.91;28.46;100631.75;4943697;29;19940;-87
2023/04/18 07:25:58;;;;;;;;;;;;;;;20.61;27.96;100633.16;4952164;29;19919;-87
2023/04/18 07:28:50;;;;;;;;;;;;;;;20.53;27.99;100635.06;4929957;29;19914;-87
2023/04/18 07:31:42;;;;;;;;;;;;;;;20.28;28.25;100632.09;4938178;29;19914;-87
2023/04/18 07:34:34;;;;;;;;;;;;;;;20.58;28.11;100633.91;4929708;29;19923;-86
2023/04/18 07:37:26;;;;;;;;;;;;;;;20.67;28.38;100645.44;4950213;29;19915;-88
2023/04/18 07:40:16;;;;;;;;;;;;;;;20.33;29.36;100644.78;4936101;29;19915;-87
2023/04/18 07:43:07;;;;;;;;;;;;;;;21.38;27.30;100643.06;4942589;29;19949;-90
2023/04/18 07:46:00;;;;;;;;;;;;;;;21.57;26.88;100643.50;4950700;29;19914;-87
2023/04/18 07:48:49;;;;;;;;;;;;;;;21.82;26.76;100662.94;4947546;29;19915;-88
2023/04/18 07:51:39;;;;;;;;;;;;;;;24.39;23.61;100654.25;4940216;29;20289;-88
2023/04/18 07:54:31;;;;;;;;;;;;;;;25.61;22.82;100660.06;4937179;29;19922;-88
2023/04/18 07:57:23;;;;;;;;;;;;;;;25.47;22.80;100655.47;4943614;29;19914;-90
2023/04/18 08:00:14;;;;;;;;;;;;;;;25.72;23.97;100660.72;4947979;29;20386;-88
2023/04/18 08:03:06;;;;;;;;;;;;;;;29.26;19.61;100669.97;4945335;28;19915;-90
2023/04/18 08:05:56;;;;;;;;;;;;;;;28.47;20.69;100670.50;4953244;29;19915;-89
2023/04/18 08:08:45;;;;;;;;;;;;;;;31.00;18.37;100682.81;4930646;29;19918;-89
2023/04/18 08:11:37;;;;;;;;;;;;;;;29.17;18.13;100678.25;4951390;29;19914;-87
2023/04/18 08:14:29;;;;;;;;;;;;;;;30.10;17.84;100677.06;4946281;29;19923;-88
2023/04/18 08:17:19;;;;;;;;;;;;;;;30.88;17.64;100678.00;4942618;29;19915;-88
2023/04/18 08:20:11;;;;;;;;;;;;;;;28.18;19.54;100683.63;4941210;29;19914;-88
2023/04/18 08:23:03;;;;;;;;;;;;;;;29.67;18.44;100695.19;4957594;28;19915;-89
2023/04/18 08:25:53;;;;;;;;;;;;;;;31.89;16.28;100687.16;4943319;29;19915;-88
2023/04/18 08:28:43;;;;;;;;;;;;;;;30.32;19.12;100691.19;4944155;29;19919;-87
2023/04/18 08:31:35;;;;;;;;;;;;;;;32.65;16.09;100701.34;4946695;29;19914;-87
2023/04/18 08:34:27;;;;;;;;;;;;;;;29.30;19.60;100693.88;4948055;28;19922;-87
2023/04/18 08:37:17;;;;;;;;;;;;;;;30.05;17.89;100692.44;4943873;29;20397;-88
2023/04/18 08:40:09;;;;;;;;;;;;;;;33.26;15.58;100710.75;4948385;28;19923;-87
2023/04/18 08:42:58;;;;;;;;;;;;;;;33.14;15.34;100698.34;4926933;29;20386;-87
2023/04/18 08:45:50;;;;;;;;;;;;;;;33.57;15.33;100714.16;4947866;29;19915;-88
2023/04/18 08:48:40;;;;;;;;;;;;;;;34.75;14.71;100707.19;4935328;29;19918;-86
2023/04/18 08:51:31;;;;;;;;;;;;;;;36.49;12.61;100706.13;4940370;29;19915;-88
2023/04/18 08:54:21;;;;;;;;;;;;;;;35.99;13.51;100709.00;4958960;28;19919;-86
2023/04/18 08:57:13;;;;;;;;;;;;;;;38.80;12.12;100718.56;4942702;29;20410;-86
2023/04/18 09:00:09;;;;;;;;;;;;;;;38.38;11.45;100719.38;4945321;29;19915;-85
2023/04/18 09:03:01;;;;;;;;;;;;;;;37.06;11.88;100709.94;4942113;29;19915;-87
2023/04/18 09:06:07;;;;;;;;;;;;;;;37.51;12.46;100716.09;4944343;29;19914;-90
2023/04/18 09:08:59;;;;;;;;;;;;;;;38.25;11.82;100714.13;4953560;28;19918;-89
2023/04/18 09:11:48;;;;;;;;;;;;;;;38.79;11.34;100714.94;4928879;29;19922;-85
2023/04/18 09:14:47;;;;;;;;;;;;;;;36.61;12.88;100707.84;4930763;28;20372;-85
2023/04/18 09:17:41;;;;;;;;;;;;;;;38.40;11.25;100708.28;4946166;29;19914;-87
2023/04/18 09:20:39;;;;;;;;;;;;;;;38.82;11.12;100711.06;4941104;29;19915;-87
2023/04/18 09:23:29;;;;;;;;;;;;;;;40.10;10.40;100713.34;4948746;29;19915;-89
2023/04/18 09:26:31;;;;;;;;;;;;;;;38.90;11.06;100706.50;4944279;29;19923;-84
2023/04/18 09:29:24;;;;;;;;;;;;;;;39.07;10.17;100694.34;4937914;29;19915;-87
2023/04/18 09:32:24;;;;;;;;;;;;;;;38.66;10.69;100693.94;4924151;29;19922;-85
2023/04/18 09:35:25;;;;;;;;;;;;;;;39.68;10.18;100695.22;4932397;29;20679;-86
2023/04/18 09:38:17;;;;;;;;;;;;;;;41.66;8.30;100704.06;4930446;29;20310;-84
2023/04/18 09:41:15;;;;;;;;;;;;;;;40.07;10.14;100697.28;4935372;28;20310;-84
2023/04/18 09:44:13;;;;;;;;;;;;;;;41.87;8.79;100702.34;4942891;29;19914;-87
2023/04/18 09:47:03;;;;;;;;;;;;;;;38.48;11.04;100703.69;4943609;29;19915;-83
2023/04/18 09:49:55;;;;;;;;;;;;;;;37.50;11.85;100692.59;4934079;29;19915;-85
2023/04/18 09:52:47;;;;;;;;;;;;;;;40.61;10.07;100694.81;4931508;29;19914;-85
2023/04/18 09:55:40;;;;;;;;;;;;;;;35.81;11.36;100689.41;4944871;28;20313;-85
2023/04/18 09:58:31;;;;;;;;;;;;;;;34.44;12.14;100687.75;4926362;29;19919;-86
2023/04/18 10:01:21;;;;;;;;;;;;;;;36.73;11.67;100686.88;4929608;29;19915;-85
2023/04/18 10:04:11;;;;;;;;;;;;;;;34.70;12.54;100685.25;4940950;29;19919;-88
2023/04/18 10:07:01;;;;;;;;;;;;;;;33.96;13.18;100686.13;4944853;28;19914;-88
2023/04/18 10:09:46;;;;;;;;;;;;;;;32.03;14.66;100680.94;4938383;29;20200;-89
2023/04/18 10:12:37;;;;;;;;;;;;;;;30.75;16.34;100679.31;4953041;28;19940;-90
2023/04/18 10:15:29;;;;;;;;;;;;;;;33.33;13.42;100685.03;4927099;29;19918;-87
2023/04/18 10:18:23;;;;;;;;;;;;;;;27.11;19.02;100669.16;4944200;28;20400;-86
2023/04/18 10:21:15;;;;;;;;;;;;;;;27.85;18.99;100675.19;4932192;29;19914;-86
2023/04/18 10:24:02;;;;;;;;;;;;;;;27.60;19.39;100666.56;4952727;29;19915;-89
2023/04/18 10:26:54;;;;;;;;;;;;;;;28.17;18.07;100670.88;4948612;28;19914;-85
2023/04/18 10:29:52;;;;;;;;;;;;;;;30.20;16.83;100670.31;4951840;28;20345;-87
2023/04/18 10:32:44;;;;;;;;;;;;;;;32.87;14.63;100665.34;4933470;29;19914;-88
2023/04/18 10:35:35;;;;;;;;;;;;;;;35.16;12.54;100666.63;4941815;29;20381;-86
2023/04/18 10:38:27;;;;;;;;;;;;;;;35.65;11.70;100668.03;4948236;29;20390;-88
2023/04/18 10:41:17;;;;;;;;;;;;;;;34.63;13.47;100663.78;4965695;28;19915;-88
2023/04/18 10:44:16;;;;;;;;;;;;;;;36.53;11.63;100664.97;4949780;29;19915;-86
2023/04/18 10:47:11;;;;;;;;;;;;;;;37.23;11.44;100659.84;4944120;29;19914;-88
2023/04/18 10:50:03;;;;;;;;;;;;;;;37.75;10.67;100667.53;4956603;28;19915;-88
2023/04/18 10:52:53;;;;;;;;;;;;;;;37.00;10.86;100660.91;4935850;29;19914;-88
2023/04/18 10:55:49;;;;;;;;;;;;;;;33.43;12.58;100658.38;4963608;29;19922;-87
2023/04/18 10:58:42;;;;;;;;;;;;;;;33.33;13.65;100651.22;4950440;29;20652;-89
2023/04/18 11:01:38;;;;;;;;;;;;;;;38.38;9.97;100656.84;4938641;29;20607;-88
2023/04/18 11:04:30;;;;;;;;;;;;;;;39.59;9.94;100661.31;4932308;29;19922;-88
2023/04/18 11:07:32;;;;;;;;;;;;;;;39.87;9.81;100655.63;4933620;29;20461;-87
2023/04/18 11:10:26;;;;;;;;;;;;;;;38.87;10.66;100653.44;4948698;29;19915;-86
2023/04/18 11:13:18;;;;;;;;;;;;;;;40.91;8.97;100652.16;4944667;29;19914;-89
2023/04/18 11:16:10;;;;;;;;;;;;;;;36.02;11.68;100643.66;4950967;29;19930;-88
2023/04/18 11:18:59;;;;;;;;;;;;;;;30.53;15.49;100637.94;4956223;28;19938;-92
2023/04/18 11:21:50;;;;;;;;;;;;;;;36.81;11.40;100640.59;4941634;28;19910;-93
2023/04/18 11:24:40;;;;;;;;;;;;;;;38.21;11.19;100641.78;4953312;28;19930;-92
2023/04/18 11:27:30;;;;;;;;;;;;;;;36.48;10.38;100628.06;4954337;28;19915;-88
2023/04/18 11:30:18;;;;;;;;;;;;;;;39.30;10.00;100639.81;4973017;28;19919;-91
2023/04/18 11:33:10;;;;;;;;;;;;;;;39.38;9.93;100634.41;4947569;28;19926;-90
2023/04/18 11:36:02;;;;;;;;;;;;;;;37.40;10.77;100634.47;4941237;29;19919;-92
2023/04/18 11:38:49;;;;;;;;;;;;;;;36.91;11.39;100631.94;4937822;28;19911;-92
2023/04/18 11:41:40;;;;;;;;;;;;;;;34.79;12.57;100630.72;4941014;29;19899;-90
2023/04/18 11:44:32;;;;;;;;;;;;;;;33.91;13.25;100620.63;4944767;28;19919;-90
2023/04/18 11:47:25;;;;;;;;;;;;;;;36.09;12.38;100627.53;4960785;28;19902;-94
2023/04/18 11:50:17;;;;;;;;;;;;;;;34.96;13.11;100624.09;4950222;28;19923;-91
2023/04/18 11:53:10;;;;;;;;;;;;;;;36.21;12.19;100624.41;4946025;29;19927;-91
2023/04/18 11:55:59;;;;;;;;;;;;;;;35.54;12.08;100625.41;4961138;28;19903;-91
2023/04/18 11:58:51;;;;;;;;;;;;;;;34.36;13.39;100621.63;4956084;29;19914;-90
2023/04/18 12:01:43;;;;;;;;;;;;;;;29.00;17.00;100617.94;4932471;29;19915;-90
2023/04/18 12:04:50;;;;;;;;;;;;;;;32.44;15.57;100626.19;4951022;28;19918;-91
2023/04/18 12:07:42;;;;;;;;;;;;;;;32.80;14.21;100620.59;4943867;28;19914;-91
2023/04/18 12:10:34;;;;;;;;;;;;;;;31.34;16.08;100611.72;4941648;28;19915;-94
2023/04/18 12:13:32;;;;;;;;;;;;;;;30.94;17.02;100617.22;4940791;28;19915;-88
2023/04/18 12:16:22;;;;;;;;;;;;;;;31.71;15.18;100617.53;4936197;29;19915;-86
2023/04/18 12:19:13;;;;;;;;;;;;;;;34.21;13.25;100615.13;4941924;28;19918;-86
2023/04/18 12:22:02;;;;;;;;;;;;;;;33.38;14.44;100616.72;4941870;28;19931;-87
2023/04/18 12:25:13;;;;;;;;;;;;;;;29.35;17.42;100600.09;4939567;29;19918;-84
2023/04/18 12:28:12;;;;;;;;;;;;;;;30.46;16.61;100601.72;4933458;29;19918;-84
2023/04/18 12:31:04;;;;;;;;;;;;;;;27.09;18.83;100601.00;4942750;28;19914;-86
2023/04/18 12:33:53;;;;;;;;;;;;;;;28.76;17.80;100606.97;4946429;29;19918;-89
2023/04/18 12:36:43;;;;;;;;;;;;;;;30.04;16.53;100614.34;4945554;29;19919;-89
2023/04/18 12:39:35;;;;;;;;;;;;;;;29.32;17.20;100612.97;4947848;28;20385;-91
2023/04/18 12:42:24;;;;;;;;;;;;;;;31.70;15.85;100605.50;4933247;29;20274;-89
2023/04/18 12:45:18;;;;;;;;;;;;;;;28.20;18.79;100605.66;4936946;29;19919;-85
2023/04/18 12:51:05;;;;;;;;;;;;;;;29.87;17.48;100608.06;4906114;29;20386;-76
2023/04/18 12:53:57;;;;;;;;;;;;;;;30.05;17.60;100615.94;4928107;29;19915;-76
2023/04/18 12:56:49;;;;;;;;;;;;;;;29.15;17.75;100610.69;4917825;29;19915;-76
2023/04/18 12:59:41;;;;;;;;;;;;;;;30.20;16.98;100610.63;4912429;29;19916;-76
2023/04/18 13:02:33;;;;;;;;;;;;;;;31.84;15.84;100612.59;4943959;23;19926;-81
2023/04/18 13:05:25;;;;;;;;;;;;;;;30.91;16.95;100609.72;4943539;29;19974;-81
2023/04/18 13:08:17;;;;;;;;;;;;;;;29.65;18.04;100595.97;4934415;29;20309;-83
2023/04/18 13:11:06;;;;;;;;;;;;;;;27.17;19.97;100599.66;4933238;28;20385;-82
2023/04/18 13:13:58;;;;;;;;;;;;;;;28.78;19.81;100593.34;4932379;28;19923;-82
2023/04/18 13:16:50;;;;;;;;;;;;;;;30.33;17.89;100594.53;4919999;29;19915;-82
2023/04/18 13:19:42;;;;;;;;;;;;;;;30.24;17.62;100592.44;4941183;28;19914;-82
2023/04/18 13:22:34;;;;;;;;;;;;;;;29.48;17.43;100592.47;4927565;28;19914;-83
2023/04/18 13:25:26;;;;;;;;;;;;;;;28.13;19.06;100594.69;4932930;29;19919;-81
2023/04/18 13:28:18;;;;;;;;;;;;;;;29.03;17.91;100594.63;4937427;29;20468;-82
2023/04/18 13:31:10;;;;;;;;;;;;;;;28.98;18.06;100590.38;4948852;29;19918;-82
2023/04/18 13:33:59;;;;;;;;;;;;;;;30.23;17.08;100596.47;4940334;29;19915;-81
2023/04/18 13:36:51;;;;;;;;;;;;;;;29.69;17.83;100596.63;4935351;29;19919;-83
2023/04/18 13:39:40;;;;;;;;;;;;;;;29.89;16.91;100587.97;4944685;28;19915;-83
2023/04/18 13:42:30;;;;;;;;;;;;;;;30.04;17.25;100586.31;4944796;28;19914;-82
2023/04/18 13:45:22;;;;;;;;;;;;;;;26.75;20.26;100581.72;4945325;28;19926;-81
2023/04/18 13:48:14;;;;;;;;;;;;;;;28.24;18.88;100584.75;4922731;29;19914;-83
2023/04/18 13:51:06;;;;;;;;;;;;;;;27.03;20.37;100581.19;4926493;28;19915;-82
2023/04/18 13:53:59;;;;;;;;;;;;;;;24.82;23.17;100581.50;4916865;29;19919;-82
2023/04/18 13:56:51;;;;;;;;;;;;;;;24.89;23.07;100576.66;4928580;29;19923;-83
2023/04/18 13:59:43;;;;;;;;;;;;;;;25.27;23.31;100574.59;4914515;29;19914;-82
2023/04/18 14:02:32;;;;;;;;;;;;;;;24.89;22.29;100575.91;4930052;29;19914;-82
2023/04/18 14:05:21;;;;;;;;;;;;;;;24.10;23.33;100580.63;4926855;29;20306;-83
2023/04/18 14:08:14;;;;;;;;;;;;;;;23.62;26.84;100583.41;4941592;28;19915;-81
2023/04/18 14:11:03;;;;;;;;;;;;;;;23.44;25.90;100580.69;4929253;29;19919;-82
2023/04/18 14:13:52;;;;;;;;;;;;;;;23.67;25.23;100583.72;4946751;29;19914;-82
2023/04/18 14:16:42;;;;;;;;;;;;;;;23.58;24.93;100577.06;4930678;29;19923;-82
2023/04/18 14:19:34;;;;;;;;;;;;;;;22.89;25.58;100580.56;4924310;29;19915;-82
2023/04/18 14:22:23;;;;;;;;;;;;;;;22.37;26.73;100579.47;4935070;29;20378;-79
2023/04/18 14:25:15;;;;;;;;;;;;;;;22.31;27.24;100578.31;4931381;29;19919;-80
2023/04/18 14:28:07;;;;;;;;;;;;;;;22.31;25.84;100578.31;4931357;28;19915;-81
2023/04/18 14:31:00;;;;;;;;;;;;;;;22.26;25.06;100584.25;4946251;29;19918;-83
2023/04/18 14:33:52;;;;;;;;;;;;;;;22.43;24.54;100575.13;4926599;29;19914;-83
2023/04/18 14:36:44;;;;;;;;;;;;;;;22.38;25.17;100581.06;4931616;29;19922;-83
2023/04/18 14:39:36;;;;;;;;;;;;;;;22.81;23.39;100587.31;4934163;29;19914;-83
2023/04/18 14:42:26;;;;;;;;;;;;;;;22.27;24.13;100580.28;4947019;28;19915;-83
2023/04/18 14:45:18;;;;;;;;;;;;;;;22.31;24.14;100568.00;4942212;29;19918;-83
2023/04/18 14:48:08;;;;;;;;;;;;;;;22.25;24.43;100577.91;4940624;29;20281;-85
2023/04/18 14:51:02;;;;;;;;;;;;;;;22.12;24.93;100585.06;4934720;29;20305;-85
2023/04/18 14:53:54;;;;;;;;;;;;;;;22.18;25.90;100580.69;4937301;29;19915;-83